sensor_id;sensor_type;location;lat;lon;timestamp;P1;durP1;ratioP1;P2;durP2;ratioP2
15486;SDS011;7845;53.698;10.078;2023-11-22T00:00:56;0.67;;;0.00;;
15486;SDS011;7845;53.698;10.078;2023-11-22T00:03:21;0.00;;;0.00;;
15486;SDS011;7845;53.698;10.078;2023-11-22T00:05:49;0.67;;;0.67;;
15486;SDS011;7845;53.698;10.078;2023-11-22T00:08:14;0.00;;;0.00;;
15486;SDS011;7845;53.698;10.078;2023-11-22T00:10:39;0.00;;;0.00;;
15486;SDS011;7845;53.698;10.078;2023-11-22T00:13:05;2.50;;;1.00;;
15486;SDS011;7845;53.698;10.078;2023-11-22T00:15:30;0.75;;;0.75;;
15486;SDS011;7845;53.698;10.078;2023-11-22T00:17:55;0.50;;;0.50;;
15486;SDS011;7845;53.698;10.078;2023-11-22T00:20:22;1.00;;;0.00;;
15486;SDS011;7845;53.698;10.078;2023-11-22T00:22:48;0.00;;;0.00;;
15486;SDS011;7845;53.698;10.078;2023-11-22T00:25:13;0.50;;;0.50;;
15486;SDS011;7845;53.698;10.078;2023-11-22T00:27:38;0.25;;;0.25;;
15486;SDS011;7845;53.698;10.078;2023-11-22T00:30:04;1.00;;;1.00;;
15486;SDS011;7845;53.698;10.078;2023-11-22T00:32:30;1.00;;;1.00;;
15486;SDS011;7845;53.698;10.078;2023-11-22T00:34:55;1.00;;;1.00;;
15486;SDS011;7845;53.698;10.078;2023-11-22T00:37:20;1.00;;;1.00;;
15486;SDS011;7845;53.698;10.078;2023-11-22T00:39:45;0.00;;;0.00;;
15486;SDS011;7845;53.698;10.078;2023-11-22T00:42:12;1.00;;;0.75;;
15486;SDS011;7845;53.698;10.078;2023-11-22T00:44:37;0.50;;;0.00;;
15486;SDS011;7845;53.698;10.078;2023-11-22T00:47:03;1.00;;;1.00;;
15486;SDS011;7845;53.698;10.078;2023-11-22T00:49:28;0.00;;;0.00;;
15486;SDS011;7845;53.698;10.078;2023-11-22T00:51:54;0.25;;;0.25;;
15486;SDS011;7845;53.698;10.078;2023-11-22T00:54:19;0.00;;;0.00;;
15486;SDS011;7845;53.698;10.078;2023-11-22T00:56:47;0.00;;;0.00;;
15486;SDS011;7845;53.698;10.078;2023-11-22T00:59:12;0.25;;;0.00;;
15486;SDS011;7845;53.698;10.078;2023-11-22T01:01:39;1.00;;;1.00;;
15486;SDS011;7845;53.698;10.078;2023-11-22T01:04:06;0.00;;;0.00;;
15486;SDS011;7845;53.698;10.078;2023-11-22T01:06:32;0.00;;;0.00;;
15486;SDS011;7845;53.698;10.078;2023-11-22T01:08:57;0.00;;;0.00;;
15486;SDS011;7845;53.698;10.078;2023-11-22T01:11:23;3.00;;;1.00;;
15486;SDS011;7845;53.698;10.078;2023-11-22T01:13:48;1.00;;;1.00;;
15486;SDS011;7845;53.698;10.078;2023-11-22T01:16:13;2.00;;;1.00;;
15486;SDS011;7845;53.698;10.078;2023-11-22T01:18:38;0.00;;;0.00;;
15486;SDS011;7845;53.698;10.078;2023-11-22T01:21:04;3.00;;;1.00;;
15486;SDS011;7845;53.698;10.078;2023-11-22T01:23:30;1.00;;;1.00;;
15486;SDS011;7845;53.698;10.078;2023-11-22T01:25:56;0.75;;;0.75;;
15486;SDS011;7845;53.698;10.078;2023-11-22T01:28:23;0.00;;;0.00;;
15486;SDS011;7845;53.698;10.078;2023-11-22T01:30:48;0.25;;;0.25;;
15486;SDS011;7845;53.698;10.078;2023-11-22T01:33:14;0.50;;;0.50;;
15486;SDS011;7845;53.698;10.078;2023-11-22T01:35:40;2.00;;;1.00;;
15486;SDS011;7845;53.698;10.078;2023-11-22T01:38:05;1.00;;;0.75;;
15486;SDS011;7845;53.698;10.078;2023-11-22T01:40:32;0.50;;;0.50;;
15486;SDS011;7845;53.698;10.078;2023-11-22T01:42:58;0.50;;;0.50;;
15486;SDS011;7845;53.698;10.078;2023-11-22T01:45:23;1.00;;;0.00;;
15486;SDS011;7845;53.698;10.078;2023-11-22T01:47:49;0.75;;;0.25;;
15486;SDS011;7845;53.698;10.078;2023-11-22T01:50:16;0.50;;;0.50;;
15486;SDS011;7845;53.698;10.078;2023-11-22T01:52:41;0.50;;;0.50;;
15486;SDS011;7845;53.698;10.078;2023-11-22T01:55:08;1.00;;;1.00;;
15486;SDS011;7845;53.698;10.078;2023-11-22T01:57:34;0.00;;;0.00;;
15486;SDS011;7845;53.698;10.078;2023-11-22T02:00:01;1.00;;;0.75;;
15486;SDS011;7845;53.698;10.078;2023-11-22T02:02:28;0.00;;;0.00;;
15486;SDS011;7845;53.698;10.078;2023-11-22T02:04:55;1.00;;;1.00;;
15486;SDS011;7845;53.698;10.078;2023-11-22T02:07:20;0.25;;;0.25;;
15486;SDS011;7845;53.698;10.078;2023-11-22T02:09:45;0.25;;;0.25;;
15486;SDS011;7845;53.698;10.078;2023-11-22T02:12:11;0.00;;;0.00;;
15486;SDS011;7845;53.698;10.078;2023-11-22T02:14:37;0.00;;;0.00;;
15486;SDS011;7845;53.698;10.078;2023-11-22T02:17:02;0.00;;;0.00;;
15486;SDS011;7845;53.698;10.078;2023-11-22T02:19:28;0.00;;;0.00;;
15486;SDS011;7845;53.698;10.078;2023-11-22T02:21:55;0.00;;;0.00;;
15486;SDS011;7845;53.698;10.078;2023-11-22T02:24:20;0.00;;;0.00;;
15486;SDS011;7845;53.698;10.078;2023-11-22T02:26:46;0.75;;;0.75;;
15486;SDS011;7845;53.698;10.078;2023-11-22T02:29:12;0.00;;;0.00;;
15486;SDS011;7845;53.698;10.078;2023-11-22T02:31:39;0.75;;;0.75;;
15486;SDS011;7845;53.698;10.078;2023-11-22T02:34:06;0.75;;;0.00;;
15486;SDS011;7845;53.698;10.078;2023-11-22T02:36:31;0.75;;;0.50;;
15486;SDS011;7845;53.698;10.078;2023-11-22T02:38:57;1.00;;;1.00;;
15486;SDS011;7845;53.698;10.078;2023-11-22T02:41:22;0.00;;;0.00;;
15486;SDS011;7845;53.698;10.078;2023-11-22T02:43:50;0.25;;;0.25;;
15486;SDS011;7845;53.698;10.078;2023-11-22T02:46:15;0.00;;;0.00;;
15486;SDS011;7845;53.698;10.078;2023-11-22T02:48:42;0.25;;;0.25;;
15486;SDS011;7845;53.698;10.078;2023-11-22T02:51:07;0.00;;;0.00;;
15486;SDS011;7845;53.698;10.078;2023-11-22T02:53:32;0.00;;;0.00;;
15486;SDS011;7845;53.698;10.078;2023-11-22T02:56:02;0.75;;;0.25;;
15486;SDS011;7845;53.698;10.078;2023-11-22T02:58:30;0.00;;;0.00;;
15486;SDS011;7845;53.698;10.078;2023-11-22T03:00:55;0.75;;;0.00;;
15486;SDS011;7845;53.698;10.078;2023-11-22T03:03:22;0.00;;;0.00;;
15486;SDS011;7845;53.698;10.078;2023-11-22T03:05:48;0.00;;;0.00;;
15486;SDS011;7845;53.698;10.078;2023-11-22T03:08:15;0.00;;;0.00;;
15486;SDS011;7845;53.698;10.078;2023-11-22T03:10:41;1.00;;;1.00;;
15486;SDS011;7845;53.698;10.078;2023-11-22T03:13:06;0.00;;;0.00;;
15486;SDS011;7845;53.698;10.078;2023-11-22T03:15:33;0.00;;;0.00;;
15486;SDS011;7845;53.698;10.078;2023-11-22T03:17:59;2.00;;;1.00;;
15486;SDS011;7845;53.698;10.078;2023-11-22T03:20:24;4.00;;;1.00;;
15486;SDS011;7845;53.698;10.078;2023-11-22T03:22:51;1.50;;;1.00;;
15486;SDS011;7845;53.698;10.078;2023-11-22T03:25:16;0.25;;;0.25;;
15486;SDS011;7845;53.698;10.078;2023-11-22T03:27:42;0.00;;;0.00;;
15486;SDS011;7845;53.698;10.078;2023-11-22T03:30:08;1.00;;;0.75;;
15486;SDS011;7845;53.698;10.078;2023-11-22T03:32:38;0.00;;;0.00;;
15486;SDS011;7845;53.698;10.078;2023-11-22T03:35:05;0.25;;;0.25;;
15486;SDS011;7845;53.698;10.078;2023-11-22T03:37:33;3.00;;;1.50;;
15486;SDS011;7845;53.698;10.078;2023-11-22T03:40:00;0.50;;;0.50;;
15486;SDS011;7845;53.698;10.078;2023-11-22T03:42:25;0.00;;;0.00;;
15486;SDS011;7845;53.698;10.078;2023-11-22T03:44:54;3.00;;;3.00;;
15486;SDS011;7845;53.698;10.078;2023-11-22T03:47:19;1.50;;;1.00;;
15486;SDS011;7845;53.698;10.078;2023-11-22T03:49:45;1.00;;;1.00;;
15486;SDS011;7845;53.698;10.078;2023-11-22T03:52:10;1.00;;;1.00;;
15486;SDS011;7845;53.698;10.078;2023-11-22T03:54:36;1.00;;;1.00;;
15486;SDS011;7845;53.698;10.078;2023-11-22T03:57:02;1.00;;;1.00;;
15486;SDS011;7845;53.698;10.078;2023-11-22T03:59:28;0.00;;;0.00;;
15486;SDS011;7845;53.698;10.078;2023-11-22T04:01:53;0.00;;;0.00;;
15486;SDS011;7845;53.698;10.078;2023-11-22T04:04:19;0.00;;;0.00;;
15486;SDS011;7845;53.698;10.078;2023-11-22T04:06:45;1.50;;;1.00;;
15486;SDS011;7845;53.698;10.078;2023-11-22T04:09:10;0.00;;;0.00;;
15486;SDS011;7845;53.698;10.078;2023-11-22T04:11:38;1.00;;;1.00;;
15486;SDS011;7845;53.698;10.078;2023-11-22T04:14:04;3.75;;;1.00;;
15486;SDS011;7845;53.698;10.078;2023-11-22T04:16:29;0.50;;;0.50;;
15486;SDS011;7845;53.698;10.078;2023-11-22T04:18:56;1.00;;;0.00;;
15486;SDS011;7845;53.698;10.078;2023-11-22T04:21:22;0.50;;;0.00;;
15486;SDS011;7845;53.698;10.078;2023-11-22T04:23:47;1.50;;;1.00;;
15486;SDS011;7845;53.698;10.078;2023-11-22T04:26:13;1.00;;;1.00;;
15486;SDS011;7845;53.698;10.078;2023-11-22T04:28:38;0.75;;;0.50;;
15486;SDS011;7845;53.698;10.078;2023-11-22T04:31:04;0.50;;;0.50;;
15486;SDS011;7845;53.698;10.078;2023-11-22T04:33:29;0.25;;;0.25;;
15486;SDS011;7845;53.698;10.078;2023-11-22T04:35:55;1.00;;;1.00;;
15486;SDS011;7845;53.698;10.078;2023-11-22T04:38:21;1.00;;;1.00;;
15486;SDS011;7845;53.698;10.078;2023-11-22T04:40:47;0.75;;;0.25;;
15486;SDS011;7845;53.698;10.078;2023-11-22T04:43:12;1.00;;;1.00;;
15486;SDS011;7845;53.698;10.078;2023-11-22T04:45:38;1.00;;;1.00;;
15486;SDS011;7845;53.698;10.078;2023-11-22T04:48:04;2.00;;;1.00;;
15486;SDS011;7845;53.698;10.078;2023-11-22T04:50:31;3.00;;;1.00;;
15486;SDS011;7845;53.698;10.078;2023-11-22T04:52:57;0.00;;;0.00;;
15486;SDS011;7845;53.698;10.078;2023-11-22T04:55:22;2.50;;;2.00;;
15486;SDS011;7845;53.698;10.078;2023-11-22T04:57:48;0.00;;;0.00;;
15486;SDS011;7845;53.698;10.078;2023-11-22T05:00:13;0.75;;;0.75;;
15486;SDS011;7845;53.698;10.078;2023-11-22T05:02:39;0.00;;;0.00;;
15486;SDS011;7845;53.698;10.078;2023-11-22T05:05:05;1.00;;;0.25;;
15486;SDS011;7845;53.698;10.078;2023-11-22T05:07:35;1.00;;;1.00;;
15486;SDS011;7845;53.698;10.078;2023-11-22T05:10:00;1.00;;;1.00;;
15486;SDS011;7845;53.698;10.078;2023-11-22T05:12:25;1.00;;;1.00;;
15486;SDS011;7845;53.698;10.078;2023-11-22T05:14:52;0.00;;;0.00;;
15486;SDS011;7845;53.698;10.078;2023-11-22T05:17:17;1.00;;;0.00;;
15486;SDS011;7845;53.698;10.078;2023-11-22T05:19:43;0.50;;;0.00;;
15486;SDS011;7845;53.698;10.078;2023-11-22T05:22:08;0.00;;;0.00;;
15486;SDS011;7845;53.698;10.078;2023-11-22T05:24:33;0.00;;;0.00;;
15486;SDS011;7845;53.698;10.078;2023-11-22T05:26:59;2.50;;;0.75;;
15486;SDS011;7845;53.698;10.078;2023-11-22T05:29:25;0.00;;;0.00;;
15486;SDS011;7845;53.698;10.078;2023-11-22T05:31:50;1.00;;;1.00;;
15486;SDS011;7845;53.698;10.078;2023-11-22T05:34:17;0.75;;;0.00;;
15486;SDS011;7845;53.698;10.078;2023-11-22T05:36:42;0.00;;;0.00;;
15486;SDS011;7845;53.698;10.078;2023-11-22T05:39:08;3.00;;;1.00;;
15486;SDS011;7845;53.698;10.078;2023-11-22T05:41:33;2.00;;;0.50;;
15486;SDS011;7845;53.698;10.078;2023-11-22T05:43:59;1.00;;;1.00;;
15486;SDS011;7845;53.698;10.078;2023-11-22T05:46:24;1.00;;;0.00;;
15486;SDS011;7845;53.698;10.078;2023-11-22T05:48:51;0.00;;;0.00;;
15486;SDS011;7845;53.698;10.078;2023-11-22T05:51:17;1.00;;;1.00;;
15486;SDS011;7845;53.698;10.078;2023-11-22T05:53:42;0.50;;;0.50;;
15486;SDS011;7845;53.698;10.078;2023-11-22T05:56:08;0.75;;;0.75;;
15486;SDS011;7845;53.698;10.078;2023-11-22T05:58:34;1.25;;;0.00;;
15486;SDS011;7845;53.698;10.078;2023-11-22T06:01:03;1.00;;;1.00;;
15486;SDS011;7845;53.698;10.078;2023-11-22T06:03:28;1.00;;;1.00;;
15486;SDS011;7845;53.698;10.078;2023-11-22T06:05:54;1.00;;;1.00;;
15486;SDS011;7845;53.698;10.078;2023-11-22T06:08:19;3.00;;;3.00;;
15486;SDS011;7845;53.698;10.078;2023-11-22T06:10:45;1.00;;;1.00;;
15486;SDS011;7845;53.698;10.078;2023-11-22T06:13:10;3.00;;;2.50;;
15486;SDS011;7845;53.698;10.078;2023-11-22T06:15:37;1.00;;;1.00;;
15486;SDS011;7845;53.698;10.078;2023-11-22T06:18:02;3.00;;;1.00;;
15486;SDS011;7845;53.698;10.078;2023-11-22T06:20:27;3.00;;;3.00;;
15486;SDS011;7845;53.698;10.078;2023-11-22T06:22:53;4.00;;;3.00;;
15486;SDS011;7845;53.698;10.078;2023-11-22T06:25:18;1.75;;;1.00;;
15486;SDS011;7845;53.698;10.078;2023-11-22T06:27:43;3.00;;;2.50;;
15486;SDS011;7845;53.698;10.078;2023-11-22T06:30:09;2.00;;;2.00;;
15486;SDS011;7845;53.698;10.078;2023-11-22T06:32:34;1.50;;;1.50;;
15486;SDS011;7845;53.698;10.078;2023-11-22T06:34:59;1.00;;;1.00;;
15486;SDS011;7845;53.698;10.078;2023-11-22T06:37:25;1.00;;;1.00;;
15486;SDS011;7845;53.698;10.078;2023-11-22T06:39:50;3.50;;;3.00;;
15486;SDS011;7845;53.698;10.078;2023-11-22T06:42:16;3.00;;;3.00;;
15486;SDS011;7845;53.698;10.078;2023-11-22T06:44:42;2.50;;;2.50;;
15486;SDS011;7845;53.698;10.078;2023-11-22T06:47:07;3.00;;;1.00;;
15486;SDS011;7845;53.698;10.078;2023-11-22T06:49:32;3.75;;;3.00;;
15486;SDS011;7845;53.698;10.078;2023-11-22T06:51:58;3.50;;;3.50;;
15486;SDS011;7845;53.698;10.078;2023-11-22T06:54:24;1.00;;;1.00;;
15486;SDS011;7845;53.698;10.078;2023-11-22T06:56:50;2.00;;;2.00;;
15486;SDS011;7845;53.698;10.078;2023-11-22T06:59:16;3.00;;;3.00;;
15486;SDS011;7845;53.698;10.078;2023-11-22T07:01:41;1.00;;;1.00;;
15486;SDS011;7845;53.698;10.078;2023-11-22T07:04:07;1.00;;;1.00;;
15486;SDS011;7845;53.698;10.078;2023-11-22T07:06:32;1.00;;;1.00;;
15486;SDS011;7845;53.698;10.078;2023-11-22T07:08:58;2.00;;;1.00;;
15486;SDS011;7845;53.698;10.078;2023-11-22T07:11:24;1.50;;;0.75;;
15486;SDS011;7845;53.698;10.078;2023-11-22T07:13:50;2.50;;;2.50;;
15486;SDS011;7845;53.698;10.078;2023-11-22T07:16:16;3.00;;;3.00;;
15486;SDS011;7845;53.698;10.078;2023-11-22T07:18:43;1.00;;;1.00;;
15486;SDS011;7845;53.698;10.078;2023-11-22T07:21:09;3.25;;;3.00;;
15486;SDS011;7845;53.698;10.078;2023-11-22T07:23:34;3.50;;;3.25;;
15486;SDS011;7845;53.698;10.078;2023-11-22T07:26:00;4.00;;;4.00;;
15486;SDS011;7845;53.698;10.078;2023-11-22T07:28:25;7.50;;;6.25;;
15486;SDS011;7845;53.698;10.078;2023-11-22T07:30:51;6.00;;;6.00;;
15486;SDS011;7845;53.698;10.078;2023-11-22T07:33:16;1.00;;;1.00;;
15486;SDS011;7845;53.698;10.078;2023-11-22T07:35:42;4.00;;;4.00;;
15486;SDS011;7845;53.698;10.078;2023-11-22T07:38:08;4.00;;;4.00;;
15486;SDS011;7845;53.698;10.078;2023-11-22T07:40:33;3.75;;;3.75;;
15486;SDS011;7845;53.698;10.078;2023-11-22T07:43:02;6.00;;;6.00;;
15486;SDS011;7845;53.698;10.078;2023-11-22T07:45:33;3.00;;;1.50;;
15486;SDS011;7845;53.698;10.078;2023-11-22T07:47:58;3.00;;;3.00;;
15486;SDS011;7845;53.698;10.078;2023-11-22T07:50:24;1.00;;;1.00;;
15486;SDS011;7845;53.698;10.078;2023-11-22T07:52:52;1.00;;;1.00;;
15486;SDS011;7845;53.698;10.078;2023-11-22T07:55:18;3.00;;;3.00;;
15486;SDS011;7845;53.698;10.078;2023-11-22T07:57:43;0.50;;;0.00;;
15486;SDS011;7845;53.698;10.078;2023-11-22T08:00:10;0.00;;;0.00;;
15486;SDS011;7845;53.698;10.078;2023-11-22T08:02:36;1.00;;;1.00;;
15486;SDS011;7845;53.698;10.078;2023-11-22T08:05:04;1.00;;;1.00;;
15486;SDS011;7845;53.698;10.078;2023-11-22T08:07:33;1.00;;;1.00;;
15486;SDS011;7845;53.698;10.078;2023-11-22T08:09:59;2.00;;;2.00;;
15486;SDS011;7845;53.698;10.078;2023-11-22T08:12:24;1.00;;;1.00;;
15486;SDS011;7845;53.698;10.078;2023-11-22T08:14:49;3.00;;;3.00;;
15486;SDS011;7845;53.698;10.078;2023-11-22T08:17:14;6.00;;;5.00;;
15486;SDS011;7845;53.698;10.078;2023-11-22T08:19:40;6.00;;;5.00;;
15486;SDS011;7845;53.698;10.078;2023-11-22T08:22:05;6.00;;;4.00;;
15486;SDS011;7845;53.698;10.078;2023-11-22T08:24:31;2.50;;;2.50;;
15486;SDS011;7845;53.698;10.078;2023-11-22T08:26:57;5.50;;;3.75;;
15486;SDS011;7845;53.698;10.078;2023-11-22T08:29:23;3.25;;;3.00;;
15486;SDS011;7845;53.698;10.078;2023-11-22T08:31:49;7.50;;;7.50;;
15486;SDS011;7845;53.698;10.078;2023-11-22T08:34:16;4.00;;;4.00;;
15486;SDS011;7845;53.698;10.078;2023-11-22T08:36:41;6.00;;;6.00;;
15486;SDS011;7845;53.698;10.078;2023-11-22T08:39:07;6.00;;;6.00;;
15486;SDS011;7845;53.698;10.078;2023-11-22T08:41:33;7.50;;;7.50;;
15486;SDS011;7845;53.698;10.078;2023-11-22T08:43:58;7.50;;;6.50;;
15486;SDS011;7845;53.698;10.078;2023-11-22T08:46:24;6.00;;;4.00;;
15486;SDS011;7845;53.698;10.078;2023-11-22T08:48:50;6.25;;;6.25;;
15486;SDS011;7845;53.698;10.078;2023-11-22T08:51:18;7.00;;;6.00;;
15486;SDS011;7845;53.698;10.078;2023-11-22T08:53:43;9.50;;;7.00;;
15486;SDS011;7845;53.698;10.078;2023-11-22T08:56:09;5.50;;;5.50;;
15486;SDS011;7845;53.698;10.078;2023-11-22T08:58:37;6.25;;;6.25;;
15486;SDS011;7845;53.698;10.078;2023-11-22T09:01:03;7.50;;;6.50;;
15486;SDS011;7845;53.698;10.078;2023-11-22T09:03:29;12.00;;;10.00;;
15486;SDS011;7845;53.698;10.078;2023-11-22T09:05:54;6.25;;;6.25;;
15486;SDS011;7845;53.698;10.078;2023-11-22T09:08:20;12.00;;;10.00;;
15486;SDS011;7845;53.698;10.078;2023-11-22T09:10:46;10.00;;;7.00;;
15486;SDS011;7845;53.698;10.078;2023-11-22T09:13:12;5.50;;;5.00;;
15486;SDS011;7845;53.698;10.078;2023-11-22T09:15:44;9.00;;;7.00;;
15486;SDS011;7845;53.698;10.078;2023-11-22T09:18:10;8.75;;;6.75;;
15486;SDS011;7845;53.698;10.078;2023-11-22T09:20:37;6.50;;;6.50;;
15486;SDS011;7845;53.698;10.078;2023-11-22T09:23:02;8.00;;;7.00;;
15486;SDS011;7845;53.698;10.078;2023-11-22T09:25:29;7.00;;;7.00;;
15486;SDS011;7845;53.698;10.078;2023-11-22T09:27:56;9.75;;;9.50;;
15486;SDS011;7845;53.698;10.078;2023-11-22T09:30:26;12.00;;;10.50;;
15486;SDS011;7845;53.698;10.078;2023-11-22T09:33:07;9.00;;;7.00;;
15486;SDS011;7845;53.698;10.078;2023-11-22T09:35:33;9.25;;;9.25;;
15486;SDS011;7845;53.698;10.078;2023-11-22T09:38:04;13.00;;;12.50;;
15486;SDS011;7845;53.698;10.078;2023-11-22T09:40:34;12.75;;;12.00;;
15486;SDS011;7845;53.698;10.078;2023-11-22T09:43:01;7.00;;;7.00;;
15486;SDS011;7845;53.698;10.078;2023-11-22T09:45:27;13.50;;;9.50;;
15486;SDS011;7845;53.698;10.078;2023-11-22T09:47:56;9.00;;;6.25;;
15486;SDS011;7845;53.698;10.078;2023-11-22T09:50:40;11.75;;;11.00;;
15486;SDS011;7845;53.698;10.078;2023-11-22T09:53:34;12.75;;;11.00;;
15486;SDS011;7845;53.698;10.078;2023-11-22T09:56:03;11.75;;;10.25;;
15486;SDS011;7845;53.698;10.078;2023-11-22T09:58:31;7.00;;;7.00;;
15486;SDS011;7845;53.698;10.078;2023-11-22T10:00:58;12.75;;;12.00;;
15486;SDS011;7845;53.698;10.078;2023-11-22T10:03:28;12.50;;;11.50;;
15486;SDS011;7845;53.698;10.078;2023-11-22T10:05:57;12.50;;;12.00;;
15486;SDS011;7845;53.698;10.078;2023-11-22T10:08:28;15.00;;;13.00;;
15486;SDS011;7845;53.698;10.078;2023-11-22T10:10:55;6.00;;;6.00;;
15486;SDS011;7845;53.698;10.078;2023-11-22T10:13:20;10.00;;;9.25;;
15486;SDS011;7845;53.698;10.078;2023-11-22T10:15:47;9.25;;;9.25;;
15486;SDS011;7845;53.698;10.078;2023-11-22T10:18:13;15.25;;;12.00;;
15486;SDS011;7845;53.698;10.078;2023-11-22T10:20:42;13.75;;;13.75;;
15486;SDS011;7845;53.698;10.078;2023-11-22T10:23:08;13.25;;;12.75;;
15486;SDS011;7845;53.698;10.078;2023-11-22T10:25:35;31.25;;;30.25;;
15486;SDS011;7845;53.698;10.078;2023-11-22T10:28:02;31.50;;;30.75;;
15486;SDS011;7845;53.698;10.078;2023-11-22T10:30:29;21.00;;;21.00;;
15486;SDS011;7845;53.698;10.078;2023-11-22T10:32:55;23.00;;;21.00;;
15486;SDS011;7845;53.698;10.078;2023-11-22T10:35:21;10.00;;;9.50;;
15486;SDS011;7845;53.698;10.078;2023-11-22T10:37:47;13.00;;;13.00;;
15486;SDS011;7845;53.698;10.078;2023-11-22T10:40:13;22.25;;;22.25;;
15486;SDS011;7845;53.698;10.078;2023-11-22T10:42:42;16.50;;;15.00;;
15486;SDS011;7845;53.698;10.078;2023-11-22T10:45:11;20.00;;;19.00;;
15486;SDS011;7845;53.698;10.078;2023-11-22T10:47:38;19.50;;;17.25;;
15486;SDS011;7845;53.698;10.078;2023-11-22T10:50:06;26.25;;;24.25;;
15486;SDS011;7845;53.698;10.078;2023-11-22T10:52:33;49.00;;;45.25;;
15486;SDS011;7845;53.698;10.078;2023-11-22T10:55:02;66.75;;;55.50;;
15486;SDS011;7845;53.698;10.078;2023-11-22T10:57:31;61.00;;;52.00;;
15486;SDS011;7845;53.698;10.078;2023-11-22T10:59:58;39.50;;;37.75;;
15486;SDS011;7845;53.698;10.078;2023-11-22T11:02:30;30.00;;;27.75;;
15486;SDS011;7845;53.698;10.078;2023-11-22T11:05:01;24.25;;;22.25;;
15486;SDS011;7845;53.698;10.078;2023-11-22T11:07:37;32.25;;;30.75;;
15486;SDS011;7845;53.698;10.078;2023-11-22T11:10:06;16.75;;;16.75;;
15486;SDS011;7845;53.698;10.078;2023-11-22T11:12:34;38.25;;;37.00;;
15486;SDS011;7845;53.698;10.078;2023-11-22T11:15:00;20.25;;;19.75;;
15486;SDS011;7845;53.698;10.078;2023-11-22T11:17:26;6.00;;;6.00;;
15486;SDS011;7845;53.698;10.078;2023-11-22T11:19:52;10.67;;;10.67;;
15486;SDS011;7845;53.698;10.078;2023-11-22T11:22:17;13.00;;;12.67;;
15486;SDS011;7845;53.698;10.078;2023-11-22T11:24:46;17.75;;;17.25;;
15486;SDS011;7845;53.698;10.078;2023-11-22T11:27:12;14.67;;;13.67;;
15486;SDS011;7845;53.698;10.078;2023-11-22T11:29:38;13.00;;;12.00;;
15486;SDS011;7845;53.698;10.078;2023-11-22T11:32:11;9.00;;;9.00;;
15486;SDS011;7845;53.698;10.078;2023-11-22T11:34:47;11.00;;;11.00;;
15486;SDS011;7845;53.698;10.078;2023-11-22T11:37:14;14.50;;;12.25;;
15486;SDS011;7845;53.698;10.078;2023-11-22T11:39:40;7.25;;;6.75;;
15486;SDS011;7845;53.698;10.078;2023-11-22T11:42:09;8.33;;;8.33;;
15486;SDS011;7845;53.698;10.078;2023-11-22T11:44:50;9.00;;;8.00;;
15486;SDS011;7845;53.698;10.078;2023-11-22T11:47:16;7.33;;;5.33;;
15486;SDS011;7845;53.698;10.078;2023-11-22T11:49:42;5.00;;;5.00;;
15486;SDS011;7845;53.698;10.078;2023-11-22T11:52:07;8.67;;;5.33;;
15486;SDS011;7845;53.698;10.078;2023-11-22T11:54:33;9.00;;;7.00;;
15486;SDS011;7845;53.698;10.078;2023-11-22T11:56:59;6.00;;;6.00;;
15486;SDS011;7845;53.698;10.078;2023-11-22T11:59:25;5.67;;;5.67;;
15486;SDS011;7845;53.698;10.078;2023-11-22T12:01:54;4.00;;;4.00;;
15486;SDS011;7845;53.698;10.078;2023-11-22T12:04:22;4.00;;;3.33;;
15486;SDS011;7845;53.698;10.078;2023-11-22T12:06:47;7.00;;;6.33;;
15486;SDS011;7845;53.698;10.078;2023-11-22T12:09:13;2.33;;;2.33;;
15486;SDS011;7845;53.698;10.078;2023-11-22T12:11:39;2.67;;;2.67;;
15486;SDS011;7845;53.698;10.078;2023-11-22T12:14:05;3.00;;;2.67;;
15486;SDS011;7845;53.698;10.078;2023-11-22T12:16:30;4.00;;;4.00;;
15486;SDS011;7845;53.698;10.078;2023-11-22T12:18:56;4.00;;;4.00;;
15486;SDS011;7845;53.698;10.078;2023-11-22T12:21:23;6.33;;;4.33;;
15486;SDS011;7845;53.698;10.078;2023-11-22T12:23:48;2.67;;;2.67;;
15486;SDS011;7845;53.698;10.078;2023-11-22T12:26:15;3.67;;;2.67;;
15486;SDS011;7845;53.698;10.078;2023-11-22T12:28:41;3.33;;;2.67;;
15486;SDS011;7845;53.698;10.078;2023-11-22T12:31:10;0.75;;;0.00;;
15486;SDS011;7845;53.698;10.078;2023-11-22T12:33:37;5.00;;;4.00;;
15486;SDS011;7845;53.698;10.078;2023-11-22T12:36:03;2.67;;;2.67;;
15486;SDS011;7845;53.698;10.078;2023-11-22T12:38:29;3.33;;;2.67;;
15486;SDS011;7845;53.698;10.078;2023-11-22T12:40:57;2.67;;;2.67;;
15486;SDS011;7845;53.698;10.078;2023-11-22T12:43:23;2.33;;;2.33;;
15486;SDS011;7845;53.698;10.078;2023-11-22T12:48:26;4.00;;;4.00;;
15486;SDS011;7845;53.698;10.078;2023-11-22T12:50:54;5.33;;;4.00;;
15486;SDS011;7845;53.698;10.078;2023-11-22T12:53:20;2.33;;;2.33;;
15486;SDS011;7845;53.698;10.078;2023-11-22T12:55:47;10.50;;;10.50;;
15486;SDS011;7845;53.698;10.078;2023-11-22T12:58:15;5.00;;;4.00;;
15486;SDS011;7845;53.698;10.078;2023-11-22T13:00:41;5.33;;;4.00;;
15486;SDS011;7845;53.698;10.078;2023-11-22T13:03:10;4.00;;;4.00;;
15486;SDS011;7845;53.698;10.078;2023-11-22T13:05:36;5.00;;;5.00;;
15486;SDS011;7845;53.698;10.078;2023-11-22T13:08:03;4.00;;;4.00;;
15486;SDS011;7845;53.698;10.078;2023-11-22T13:10:31;3.67;;;3.67;;
15486;SDS011;7845;53.698;10.078;2023-11-22T13:12:57;2.33;;;2.33;;
15486;SDS011;7845;53.698;10.078;2023-11-22T13:15:23;1.67;;;1.67;;
15486;SDS011;7845;53.698;10.078;2023-11-22T13:17:51;1.00;;;1.00;;
15486;SDS011;7845;53.698;10.078;2023-11-22T13:20:20;1.67;;;1.33;;
15486;SDS011;7845;53.698;10.078;2023-11-22T13:22:52;1.00;;;1.00;;
15486;SDS011;7845;53.698;10.078;2023-11-22T13:25:18;1.00;;;1.00;;
15486;SDS011;7845;53.698;10.078;2023-11-22T13:27:47;1.00;;;1.00;;
15486;SDS011;7845;53.698;10.078;2023-11-22T13:30:14;1.00;;;0.33;;
15486;SDS011;7845;53.698;10.078;2023-11-22T13:32:45;0.00;;;0.00;;
15486;SDS011;7845;53.698;10.078;2023-11-22T13:35:12;1.00;;;1.00;;
15486;SDS011;7845;53.698;10.078;2023-11-22T13:37:40;0.00;;;0.00;;
15486;SDS011;7845;53.698;10.078;2023-11-22T13:40:07;1.00;;;0.67;;
15486;SDS011;7845;53.698;10.078;2023-11-22T13:42:39;0.00;;;0.00;;
15486;SDS011;7845;53.698;10.078;2023-11-22T13:45:05;1.00;;;1.00;;
15486;SDS011;7845;53.698;10.078;2023-11-22T13:47:31;0.33;;;0.00;;
15486;SDS011;7845;53.698;10.078;2023-11-22T13:49:58;2.33;;;2.33;;
15486;SDS011;7845;53.698;10.078;2023-11-22T13:52:24;1.00;;;1.00;;
15486;SDS011;7845;53.698;10.078;2023-11-22T13:54:50;2.33;;;1.67;;
15486;SDS011;7845;53.698;10.078;2023-11-22T13:57:20;1.00;;;1.00;;
15486;SDS011;7845;53.698;10.078;2023-11-22T13:59:45;0.00;;;0.00;;
15486;SDS011;7845;53.698;10.078;2023-11-22T14:02:10;0.00;;;0.00;;
15486;SDS011;7845;53.698;10.078;2023-11-22T14:04:36;0.00;;;0.00;;
15486;SDS011;7845;53.698;10.078;2023-11-22T14:07:01;1.00;;;1.00;;
15486;SDS011;7845;53.698;10.078;2023-11-22T14:09:26;0.00;;;0.00;;
15486;SDS011;7845;53.698;10.078;2023-11-22T14:11:52;1.00;;;1.00;;
15486;SDS011;7845;53.698;10.078;2023-11-22T14:14:18;0.00;;;0.00;;
15486;SDS011;7845;53.698;10.078;2023-11-22T14:16:44;17.25;;;17.25;;
15486;SDS011;7845;53.698;10.078;2023-11-22T14:19:10;3.00;;;0.33;;
15486;SDS011;7845;53.698;10.078;2023-11-22T14:21:36;1.00;;;1.00;;
15486;SDS011;7845;53.698;10.078;2023-11-22T14:24:01;13.75;;;11.50;;
15486;SDS011;7845;53.698;10.078;2023-11-22T14:26:26;5.33;;;4.00;;
15486;SDS011;7845;53.698;10.078;2023-11-22T14:28:52;7.00;;;7.00;;
15486;SDS011;7845;53.698;10.078;2023-11-22T14:31:17;7.00;;;6.00;;
15486;SDS011;7845;53.698;10.078;2023-11-22T14:33:42;8.25;;;8.25;;
15486;SDS011;7845;53.698;10.078;2023-11-22T14:36:08;10.75;;;8.75;;
15486;SDS011;7845;53.698;10.078;2023-11-22T14:38:33;14.25;;;12.75;;
15486;SDS011;7845;53.698;10.078;2023-11-22T14:40:59;6.50;;;6.50;;